Last 7 Days

Suisun Valley (SSV)

Hourly Data | America/Los_Angeles
as of 12/12/19 3:11 AM PST
Date & Time Temp (°F) RH (%) Dew Pt (°F) Wind Spd (mph) Wind Dir (°) Wind Gust (mph) Latest Rain (In) Daily Rain (In) Daily Min Temp (°F) Daily Max Temp (°F)
12/12/19 - 0300 53.1 98 52.6 0.4 ENE | 66 0.4 0.03 0.04 53.0 53.5
12/12/19 - 0200 53.2 98 52.7 0.4 SW | 223 0.4 0.01 0.01 53.0 53.5
12/12/19 - 0100 53.4 98 52.9 0.4 NNW | 344 0.4 0.00 0.00 53.3 53.5
12/12/19 - 0000 53.3 98 52.8 0.4 NNW | 340 1.4 0.00 0.12 51.1 54.8
12/11/19 - 2300 53.2 98 52.6 0.4 NW | 310 0.4 0.01 0.12 51.1 54.8
12/11/19 - 2200 53.2 98 52.6 0.4 NW | 322 0.4 0.02 0.11 51.1 54.8
12/11/19 - 2100 53.2 97 52.5 0.4 W | 271 0.4 0.02 0.09 51.1 54.8
12/11/19 - 2000 53.2 97 52.4 0.9 NNW | 329 4.1 0.00 0.07 51.1 54.8
12/11/19 - 1900 53.2 97 52.3 0.5 S | 176 3.8 0.00 0.07 51.1 54.8
12/11/19 - 1800 53.2 97 52.3 0.7 SSW | 196 3.8 0.01 0.07 51.1 54.8
12/11/19 - 1700 53.3 96 52.3 0.5 SE | 135 2.4 0.00 0.06 51.1 54.8
12/11/19 - 1600 53.6 95 52.3 2.6 SE | 124 8.4 0.00 0.06 51.1 54.8
12/11/19 - 1500 54.5 95 53.2 1.9 SE | 140 6.1 0.00 0.06 51.1 54.8
12/11/19 - 1400 54.2 96 53.2 0.8 SE | 141 4.4 0.00 0.06 51.1 54.4
12/11/19 - 1300 54.0 96 52.8 2.0 S | 181 4.1 0.05 0.06 51.1 54.3
12/11/19 - 1200 53.9 96 52.8 0.9 S | 184 3.8 0.00 0.01 51.1 54.3
12/11/19 - 1100 52.9 97 52.1 1.0 SSW | 204 3.4 0.00 0.01 51.1 53.5
12/11/19 - 1000 52.3 98 51.6 2.2 SE | 140 5.1 0.00 0.01 51.1 52.6
12/11/19 - 0900 51.8 98 51.2 2.1 SE | 129 5.1 0.00 0.01 51.1 52.0
12/11/19 - 0800 51.5 98 50.9 1.8 SE | 128 4.4 0.01 0.01 51.1 51.8
12/11/19 - 0700 51.6 98 51.0 1.5 S | 174 4.1 0.00 0.00 51.1 51.8
12/11/19 - 0600 51.6 98 51.0 0.6 N | 349 3.4 0.00 0.00 51.1 51.7
12/11/19 - 0500 51.4 98 50.9 0.7 N | 359 3.1 0.00 0.00 51.1 51.6
12/11/19 - 0400 51.3 98 50.7 1.5 NNW | 332 4.1 0.00 0.00 51.1 51.5
12/11/19 - 0300 51.2 98 50.7 0.7 NW | 325 3.1 0.00 0.00 51.2 51.5
12/11/19 - 0200 51.4 98 50.7 0.5 NW | 319 2.4 0.00 0.00 51.2 51.5
12/11/19 - 0100 51.4 98 50.7 0.4 SE | 126 1.4 0.00 0.00 51.3 51.4
12/11/19 - 0000 51.5 97 50.8 0.4 ENE | 67 2.7 0.02 0.17 42.6 54.4
12/10/19 - 2300 51.8 97 51.1 0.7 E | 93 3.1 0.00 0.15 42.6 54.4
12/10/19 - 2200 51.8 97 51.0 1.2 SW | 216 4.1 0.01 0.15 42.6 54.4
12/10/19 - 2100 51.6 97 50.7 0.6 N | 357 2.7 0.05 0.14 42.6 54.4
12/10/19 - 2000 51.8 95 50.6 0.8 NNW | 343 3.4 0.06 0.09 42.6 54.4
12/10/19 - 1900 53.0 90 50.0 0.7 WNW | 289 3.1 0.03 0.03 42.6 54.4
12/10/19 - 1800 53.2 87 49.3 0.7 NW | 305 2.7 0.00 0.00 42.6 54.4
12/10/19 - 1700 53.7 85 49.2 2.4 ENE | 58 6.1 0.00 0.00 42.6 54.4
12/10/19 - 1600 54.1 84 49.5 2.1 ENE | 71 5.8 0.00 0.00 42.6 54.4
12/10/19 - 1500 54.3 84 49.5 2.2 E | 82 5.4 0.00 0.00 42.6 54.4
12/10/19 - 1400 54.2 83 49.2 2.2 ESE | 118 5.4 0.00 0.00 42.6 54.4
12/10/19 - 1300 53.8 83 48.8 1.1 NE | 39 4.1 0.00 0.00 42.6 54.2
12/10/19 - 1200 53.4 86 49.1 1.2 NE | 54 4.1 0.00 0.00 42.6 53.8
12/10/19 - 1100 52.0 95 50.5 1.3 SE | 137 4.8 0.00 0.00 42.6 52.8
12/10/19 - 1000 50.4 98 49.7 0.4 NNE | 18 2.1 0.00 0.00 42.6 51.4
12/10/19 - 0900 49.0 98 48.5 1.1 N | 7 4.8 0.00 0.00 42.6 49.7
12/10/19 - 0800 47.7 98 47.3 1.4 WNW | 302 5.1 0.00 0.00 42.6 48.2
12/10/19 - 0700 45.4 98 45.0 0.4 WNW | 293 1.7 0.00 0.00 42.6 46.7
12/10/19 - 0600 44.5 98 44.0 0.5 WNW | 282 2.7 0.00 0.00 42.6 46.7
12/10/19 - 0500 45.2 98 44.8 1.5 W | 260 3.4 0.00 0.00 42.6 46.7
12/10/19 - 0400 45.5 98 45.0 0.5 WNW | 295 2.7 0.00 0.00 42.6 46.7
12/10/19 - 0300 45.9 98 45.4 0.9 NW | 315 3.1 0.00 0.00 42.6 46.7
12/10/19 - 0200 45.0 98 44.6 1.9 NW | 309 5.8 0.00 0.00 42.6 45.6
12/10/19 - 0100 43.9 98 43.5 0.9 NW | 306 4.1 0.00 0.00 42.6 45.5
12/10/19 - 0000 42.8 98 42.3 1.0 NW | 318 3.8 0.00 0.01 40.7 59.2
12/9/19 - 2300 41.9 98 41.3 0.5 W | 275 2.7 0.00 0.01 40.7 59.2
12/9/19 - 2200 43.8 97 43.1 0.6 NW | 304 2.1 0.00 0.01 43.0 59.2
12/9/19 - 2100 45.7 97 44.9 0.5 NW | 306 2.4 0.00 0.01 43.3 59.2
12/9/19 - 2000 46.0 96 44.9 0.5 WNW | 288 2.4 0.00 0.01 43.3 59.2
12/9/19 - 1900 49.4 94 47.7 0.7 NW | 324 3.4 0.00 0.01 43.3 59.2
12/9/19 - 1800 51.8 91 49.2 1.3 WNW | 302 6.1 0.00 0.01 43.3 59.2
12/9/19 - 1700 52.8 90 49.9 5.9 W | 260 12.1 0.00 0.01 43.3 59.2
12/9/19 - 1600 54.9 85 50.5 7.5 WSW | 246 16.2 0.00 0.01 43.3 59.2
12/9/19 - 1500 57.0 82 51.5 7.5 SW | 224 13.5 0.00 0.01 43.3 59.2
12/9/19 - 1400 57.7 81 51.8 7.8 SW | 223 14.2 0.00 0.01 43.3 59.2
12/9/19 - 1300 58.2 80 52.1 6.1 SSW | 203 11.1 0.00 0.01 43.3 59.2
12/9/19 - 1200 58.2 76 50.7 3.9 SSE | 157 10.5 0.00 0.01 43.3 59.2
12/9/19 - 1100 55.9 80 49.7 2.9 SE | 134 6.4 0.00 0.01 43.3 57.4
12/9/19 - 1000 52.3 90 49.3 0.8 E | 88 3.4 0.00 0.01 43.3 54.4
12/9/19 - 0900 47.8 98 47.3 1.1 WNW | 298 3.8 0.00 0.01 43.3 50.4
12/9/19 - 0800 44.7 98 44.3 1.1 NW | 308 3.8 0.01 0.01 43.3 46.6
12/9/19 - 0700 43.9 98 43.4 1.1 NW | 306 4.1 0.00 0.00 43.3 46.6
12/9/19 - 0600 44.2 98 43.7 1.1 NNW | 331 3.4 0.00 0.00 43.8 46.6
12/9/19 - 0500 44.8 98 44.3 0.8 NW | 315 3.4 0.00 0.00 44.2 46.6
12/9/19 - 0400 45.0 98 44.6 1.4 NNW | 328 4.1 0.00 0.00 44.2 46.6
12/9/19 - 0300 45.4 98 44.9 0.9 NW | 304 3.1 0.00 0.00 44.4 46.6
12/9/19 - 0200 45.8 98 45.3 1.7 NW | 312 4.4 0.00 0.00 45.6 46.6
12/9/19 - 0100 46.1 98 45.5 1.3 NW | 319 4.4 0.00 0.00 45.6 46.6
12/9/19 - 0000 46.4 98 45.9 1.1 NNW | 342 4.1 0.00 0.03 46.0 64.8
12/8/19 - 2300 47.7 98 47.0 0.7 WNW | 292 2.7 0.00 0.03 46.8 64.8
12/8/19 - 2200 48.6 97 47.9 0.9 NW | 309 3.1 0.00 0.03 48.2 64.8
12/8/19 - 2100 49.6 97 48.9 1.0 NW | 321 3.4 0.00 0.03 48.4 64.8
12/8/19 - 2000 50.2 97 49.3 1.0 NW | 316 3.1 0.00 0.03 49.7 64.8
12/8/19 - 1900 51.6 95 50.4 1.2 NNW | 328 5.1 0.00 0.03 50.6 64.8
12/8/19 - 1800 53.6 92 51.5 0.8 NW | 316 3.4 0.00 0.03 52.2 64.8
12/8/19 - 1700 57.9 83 52.7 0.6 NNW | 336 2.7 0.00 0.03 52.2 64.8
12/8/19 - 1600 61.1 75 53.0 2.1 NNW | 342 8.8 0.00 0.03 52.2 64.8
12/8/19 - 1500 61.0 76 53.2 2.8 NNW | 343 9.5 0.00 0.03 52.2 64.8
12/8/19 - 1400 63.2 67 51.9 1.7 S | 170 6.4 0.00 0.03 52.2 64.8
12/8/19 - 1300 61.2 72 52.2 1.9 W | 280 6.1 0.00 0.03 52.2 62.6
12/8/19 - 1200 59.0 81 53.4 2.8 W | 269 7.1 0.00 0.03 52.2 60.8
12/8/19 - 1100 58.8 87 54.9 3.6 SSW | 201 7.8 0.00 0.03 52.2 60.1
12/8/19 - 1000 56.5 98 55.9 2.3 SE | 138 6.4 0.00 0.03 52.2 57.9
12/8/19 - 0900 54.3 98 53.9 0.9 SSE | 157 3.4 0.00 0.03 52.2 56.6
12/8/19 - 0800 53.1 98 52.7 0.7 NW | 304 4.8 0.00 0.03 52.2 56.6
12/8/19 - 0700 52.8 98 52.3 1.0 SSE | 147 3.4 0.01 0.03 52.2 56.6
12/8/19 - 0600 53.2 98 52.6 0.5 NW | 304 1.7 0.00 0.02 52.6 56.6
12/8/19 - 0500 53.8 97 53.1 0.7 SW | 229 2.7 0.00 0.02 53.1 56.6
12/8/19 - 0400 54.2 96 53.2 1.1 SE | 141 4.1 0.00 0.02 53.7 56.6
12/8/19 - 0300 55.7 95 54.2 2.9 SSW | 203 8.4 0.00 0.02 55.3 56.6
12/8/19 - 0200 56.4 95 55.0 4.7 SW | 215 10.5 0.02 0.02 56.1 56.6
12/8/19 - 0100 56.3 95 54.9 5.7 SSW | 210 10.5 0.00 0.00 56.1 56.5
12/8/19 - 0000 57.0 95 55.5 5.8 SSW | 209 11.1 0.06 0.41 54.3 65.1
12/7/19 - 2300 58.0 92 55.6 6.7 SSW | 208 14.5 0.00 0.35 54.3 65.1
12/7/19 - 2200 58.2 91 55.6 6.9 SSW | 194 16.5 0.00 0.35 54.3 65.1
12/7/19 - 2100 58.4 90 55.4 6.7 S | 190 16.2 0.00 0.35 54.3 65.1
12/7/19 - 2000 58.3 90 55.3 5.2 S | 181 12.5 0.00 0.35 54.3 65.1
12/7/19 - 1900 57.3 88 53.9 2.4 SE | 141 5.4 0.00 0.35 54.3 65.1
12/7/19 - 1800 57.9 84 53.3 4.3 S | 182 16.5 0.00 0.35 54.3 65.1
12/7/19 - 1700 58.6 85 54.0 8.3 SSW | 210 20.2 0.00 0.35 54.3 65.1
12/7/19 - 1600 60.4 84 55.4 10.6 SSW | 194 24.2 0.01 0.35 54.3 65.1
12/7/19 - 1500 59.5 92 57.1 7.5 S | 190 16.2 0.09 0.34 54.3 65.1
12/7/19 - 1400 61.2 83 56.2 11.0 S | 185 21.9 0.03 0.25 54.3 65.1
12/7/19 - 1300 62.1 78 55.2 11.6 S | 181 21.9 0.00 0.22 54.3 65.1
12/7/19 - 1200 64.0 71 54.4 13.1 S | 175 24.9 0.01 0.22 54.3 65.1
12/7/19 - 1100 62.8 76 55.0 9.6 SSE | 164 21.9 0.00 0.21 54.3 64.2
12/7/19 - 1000 61.0 84 56.0 8.2 SSE | 161 15.5 0.00 0.21 54.3 61.5
12/7/19 - 0900 57.9 96 56.6 4.1 S | 180 12.8 0.00 0.21 54.3 60.4
12/7/19 - 0800 55.7 97 54.9 1.4 S | 170 5.1 0.00 0.21 54.3 56.3
12/7/19 - 0700 56.0 98 55.4 2.7 S | 176 5.8 0.00 0.21 54.3 56.3
12/7/19 - 0600 54.6 98 54.1 0.7 ESE | 111 4.1 0.00 0.21 54.3 55.2
12/7/19 - 0500 55.0 98 54.4 0.4 ESE | 106 2.1 0.03 0.21 54.7 55.2
12/7/19 - 0400 54.9 98 54.3 0.4 SSW | 206 2.1 0.08 0.18 54.7 55.1
12/7/19 - 0300 54.9 97 54.1 0.6 SW | 226 3.8 0.02 0.10 54.7 55.1
12/7/19 - 0200 55.0 97 54.1 0.5 SE | 133 3.4 0.06 0.08 54.7 55.1
12/7/19 - 0100 54.8 97 54.0 1.0 NW | 305 11.1 0.02 0.02 54.7 55.1
12/7/19 - 0000 55.0 96 53.9 2.3 SSE | 167 9.1 0.00 0.43 48.5 61.3
12/6/19 - 2300 55.0 96 54.0 0.8 SSE | 161 5.1 0.10 0.43 48.5 61.3
12/6/19 - 2200 55.4 96 54.4 1.3 ENE | 59 7.1 0.16 0.33 48.5 61.3
12/6/19 - 2100 56.4 92 54.1 1.5 N | 349 4.8 0.11 0.17 48.5 61.3
12/6/19 - 2000 58.1 84 53.2 2.9 SSW | 203 6.4 0.00 0.06 48.5 61.3
12/6/19 - 1900 57.3 88 53.8 2.8 SSW | 202 8.4 0.02 0.06 48.5 61.3
12/6/19 - 1800 58.5 83 53.4 3.7 SSW | 203 12.1 0.03 0.04 48.5 61.3
12/6/19 - 1700 59.3 84 54.4 1.8 SW | 233 9.8 0.00 0.01 48.5 61.3
12/6/19 - 1600 60.4 81 54.5 0.6 WSW | 250 2.7 0.00 0.01 48.5 61.3
12/6/19 - 1500 60.2 82 54.6 2.8 SW | 214 7.1 0.00 0.01 48.5 61.3
12/6/19 - 1400 61.0 78 54.1 3.1 SE | 129 8.4 0.00 0.01 48.5 61.3
12/6/19 - 1300 59.2 81 53.4 2.0 ESE | 115 5.8 0.00 0.01 48.5 60.5
12/6/19 - 1200 58.1 88 54.4 2.3 SSE | 148 6.4 0.01 0.01 48.5 59.6
12/6/19 - 1100 54.6 97 53.9 0.5 SSW | 198 3.1 0.00 0.00 48.5 55.6
12/6/19 - 1000 54.1 98 53.6 1.6 SE | 137 5.4 0.00 0.00 48.5 55.4
12/6/19 - 0900 53.8 98 53.3 0.9 SSE | 162 3.4 0.00 0.00 48.5 55.4
12/6/19 - 0800 52.7 98 52.2 0.4 S | 185 0.4 0.00 0.00 48.5 55.4
12/6/19 - 0700 52.4 98 51.9 0.4 WNW | 285 0.4 0.00 0.00 48.5 55.4
12/6/19 - 0600 51.2 98 50.6 0.4 WNW | 296 0.4 0.00 0.00 48.5 55.4
12/6/19 - 0500 49.6 98 49.0 0.4 NNW | 344 0.4 0.00 0.00 48.5 55.4
12/6/19 - 0400 50.1 97 49.4 0.4 WNW | 297 0.4 0.00 0.00 48.9 55.4
12/6/19 - 0300 52.2 97 51.3 0.6 NW | 311 3.8 0.00 0.00 50.9 55.4
12/6/19 - 0200 53.5 96 52.3 0.4 N | 10 0.4 0.00 0.00 52.8 55.4
12/6/19 - 0100 55.0 94 53.2 0.5 SW | 218 3.4 0.00 0.00 54.4 55.4
12/6/19 - 0000 55.3 93 53.4 0.5 SSW | 201 2.7 0.00 0.00 52.9 58.3
12/5/19 - 2300 55.1 95 53.6 0.5 SSW | 198 2.7 0.00 0.00 52.9 58.3
12/5/19 - 2200 55.0 95 53.6 0.4 WSW | 251 0.4 0.00 0.00 52.9 58.3
12/5/19 - 2100 55.1 94 53.6 0.4 SW | 230 0.4 0.00 0.00 52.9 58.3
12/5/19 - 2000 54.8 94 53.3 0.4 NW | 322 2.1 0.00 0.00 52.9 58.3
12/5/19 - 1900 55.1 92 52.7 0.4 W | 280 1.7 0.00 0.00 52.9 58.3
12/5/19 - 1800 55.7 88 52.2 0.5 S | 171 2.4 0.00 0.00 52.9 58.3
12/5/19 - 1700 57.1 84 52.4 0.8 ENE | 69 5.1 0.00 0.00 52.9 58.3
12/5/19 - 1600 57.6 83 52.4 1.1 ENE | 63 4.4 0.00 0.00 52.9 58.3
12/5/19 - 1500 57.8 82 52.4 3.2 ENE | 74 7.4 0.00 0.00 52.9 58.3
12/5/19 - 1400 57.1 87 53.3 4.0 E | 88 8.8 0.00 0.00 52.9 58.1
12/5/19 - 1300 57.3 87 53.4 3.3 E | 83 8.4 0.00 0.00 52.9 57.7
12/5/19 - 1200 56.9 88 53.5 2.9 ENE | 68 6.8 0.00 0.00 52.9 57.5
12/5/19 - 1100 56.3 94 54.7 3.1 ENE | 76 8.1 0.00 0.00 52.9 56.8
12/5/19 - 1000 55.0 98 54.4 0.5 SSE | 151 3.4 0.00 0.00 52.9 55.5
12/5/19 - 0900 54.3 98 53.8 0.4 SW | 228 1.7 0.00 0.00 52.9 54.6
12/5/19 - 0800 53.7 98 53.2 0.4 N | 355 0.4 0.00 0.00 52.9 53.9
12/5/19 - 0700 53.5 98 53.0 0.4 NW | 323 1.7 0.00 0.00 52.9 53.7
12/5/19 - 0600 53.3 98 52.8 0.4 NNW | 344 1.1 0.00 0.00 52.9 53.5
12/5/19 - 0500 53.4 98 52.9 0.4 W | 262 0.4 0.00 0.00 52.9 53.5
12/5/19 - 0400 53.2 98 52.7 0.4 N | 2 2.4 0.00 0.00 52.9 53.5
Max 64.0 98 57.1 13.1 - 24.9 0.16 0.43 56.1 65.1
Avg 53.6 93 51.4 2.0 - 5.6 0.01 - - -
Min 41.9 67 41.3 0.4 - 0.4 0.00 0.00 40.7 45.5
Total - - - - - - 1.21 - - -
Tip: Bookmark this page for easy future reference